sensor_id;sensor_type;location;lat;lon;timestamp;temperature;humidity
4727;DHT22;2377;51.734;8.950;2023-03-11T00:00:26;0.70;99.90
4727;DHT22;2377;51.734;8.950;2023-03-11T00:02:58;0.60;99.90
4727;DHT22;2377;51.734;8.950;2023-03-11T00:05:27;0.60;99.90
4727;DHT22;2377;51.734;8.950;2023-03-11T00:07:56;0.60;99.90
4727;DHT22;2377;51.734;8.950;2023-03-11T00:10:26;0.60;99.90
4727;DHT22;2377;51.734;8.950;2023-03-11T00:12:56;0.60;99.90
4727;DHT22;2377;51.734;8.950;2023-03-11T00:15:23;0.60;99.90
4727;DHT22;2377;51.734;8.950;2023-03-11T00:17:51;0.60;99.90
4727;DHT22;2377;51.734;8.950;2023-03-11T00:20:21;0.60;99.90
4727;DHT22;2377;51.734;8.950;2023-03-11T00:22:50;0.60;99.90
4727;DHT22;2377;51.734;8.950;2023-03-11T00:25:19;0.60;99.90
4727;DHT22;2377;51.734;8.950;2023-03-11T00:27:48;0.60;99.90
4727;DHT22;2377;51.734;8.950;2023-03-11T00:30:17;0.50;99.90
4727;DHT22;2377;51.734;8.950;2023-03-11T00:32:46;0.50;99.90
4727;DHT22;2377;51.734;8.950;2023-03-11T00:35:16;0.60;99.90
4727;DHT22;2377;51.734;8.950;2023-03-11T00:37:45;0.60;99.90
4727;DHT22;2377;51.734;8.950;2023-03-11T00:40:15;0.50;99.90
4727;DHT22;2377;51.734;8.950;2023-03-11T00:42:45;0.50;99.90
4727;DHT22;2377;51.734;8.950;2023-03-11T00:45:13;0.50;99.90
4727;DHT22;2377;51.734;8.950;2023-03-11T00:47:40;0.50;99.90
4727;DHT22;2377;51.734;8.950;2023-03-11T00:50:09;0.50;99.90
4727;DHT22;2377;51.734;8.950;2023-03-11T00:52:42;0.50;99.90
4727;DHT22;2377;51.734;8.950;2023-03-11T00:55:09;0.50;99.90
4727;DHT22;2377;51.734;8.950;2023-03-11T00:57:38;0.50;99.90
4727;DHT22;2377;51.734;8.950;2023-03-11T01:00:07;0.50;99.90
4727;DHT22;2377;51.734;8.950;2023-03-11T01:02:37;0.50;99.90
4727;DHT22;2377;51.734;8.950;2023-03-11T01:05:05;0.50;99.90
4727;DHT22;2377;51.734;8.950;2023-03-11T01:07:33;0.50;99.90
4727;DHT22;2377;51.734;8.950;2023-03-11T01:10:00;0.50;99.90
4727;DHT22;2377;51.734;8.950;2023-03-11T01:12:27;0.40;99.90
4727;DHT22;2377;51.734;8.950;2023-03-11T01:14:54;0.50;99.90
4727;DHT22;2377;51.734;8.950;2023-03-11T01:17:21;0.40;99.90
4727;DHT22;2377;51.734;8.950;2023-03-11T01:19:50;0.40;99.90
4727;DHT22;2377;51.734;8.950;2023-03-11T01:22:17;0.40;99.90
4727;DHT22;2377;51.734;8.950;2023-03-11T01:24:44;0.40;99.90
4727;DHT22;2377;51.734;8.950;2023-03-11T01:27:11;0.40;99.90
4727;DHT22;2377;51.734;8.950;2023-03-11T01:29:38;0.40;99.90
4727;DHT22;2377;51.734;8.950;2023-03-11T01:32:05;0.30;99.90
4727;DHT22;2377;51.734;8.950;2023-03-11T01:34:32;0.30;99.90
4727;DHT22;2377;51.734;8.950;2023-03-11T01:37:02;0.30;99.90
4727;DHT22;2377;51.734;8.950;2023-03-11T01:39:28;0.30;99.90
4727;DHT22;2377;51.734;8.950;2023-03-11T01:41:58;0.40;99.90
4727;DHT22;2377;51.734;8.950;2023-03-11T01:44:25;0.40;99.90
4727;DHT22;2377;51.734;8.950;2023-03-11T01:47:26;0.40;99.90
4727;DHT22;2377;51.734;8.950;2023-03-11T01:49:58;0.40;99.90
4727;DHT22;2377;51.734;8.950;2023-03-11T01:52:27;0.50;99.90
4727;DHT22;2377;51.734;8.950;2023-03-11T01:54:55;0.40;99.90
4727;DHT22;2377;51.734;8.950;2023-03-11T01:57:22;0.40;99.90
4727;DHT22;2377;51.734;8.950;2023-03-11T01:59:52;0.40;99.90
4727;DHT22;2377;51.734;8.950;2023-03-11T02:02:27;0.40;99.90
4727;DHT22;2377;51.734;8.950;2023-03-11T02:04:58;0.30;99.90
4727;DHT22;2377;51.734;8.950;2023-03-11T02:07:29;0.30;99.90
4727;DHT22;2377;51.734;8.950;2023-03-11T02:09:56;0.40;99.90
4727;DHT22;2377;51.734;8.950;2023-03-11T02:12:24;0.30;99.90
4727;DHT22;2377;51.734;8.950;2023-03-11T02:14:56;0.30;99.90
4727;DHT22;2377;51.734;8.950;2023-03-11T02:17:23;0.30;99.90
4727;DHT22;2377;51.734;8.950;2023-03-11T02:20:00;0.30;99.90
4727;DHT22;2377;51.734;8.950;2023-03-11T02:22:41;0.30;99.90
4727;DHT22;2377;51.734;8.950;2023-03-11T02:25:15;0.30;99.90
4727;DHT22;2377;51.734;8.950;2023-03-11T02:27:53;0.30;99.90
4727;DHT22;2377;51.734;8.950;2023-03-11T02:30:22;0.30;99.90
4727;DHT22;2377;51.734;8.950;2023-03-11T02:32:51;0.30;99.90
4727;DHT22;2377;51.734;8.950;2023-03-11T02:35:20;0.30;99.90
4727;DHT22;2377;51.734;8.950;2023-03-11T02:37:49;0.30;99.90
4727;DHT22;2377;51.734;8.950;2023-03-11T02:40:49;0.30;99.90
4727;DHT22;2377;51.734;8.950;2023-03-11T02:43:26;0.30;99.90
4727;DHT22;2377;51.734;8.950;2023-03-11T02:45:59;0.30;99.90
4727;DHT22;2377;51.734;8.950;2023-03-11T02:48:28;0.30;99.90
4727;DHT22;2377;51.734;8.950;2023-03-11T02:50:56;0.30;99.90
4727;DHT22;2377;51.734;8.950;2023-03-11T02:53:25;0.20;99.90
4727;DHT22;2377;51.734;8.950;2023-03-11T02:55:55;0.20;99.90
4727;DHT22;2377;51.734;8.950;2023-03-11T02:58:24;0.20;99.90
4727;DHT22;2377;51.734;8.950;2023-03-11T03:00:51;0.30;99.90
4727;DHT22;2377;51.734;8.950;2023-03-11T03:03:18;0.30;99.90
4727;DHT22;2377;51.734;8.950;2023-03-11T03:05:44;0.30;99.90
4727;DHT22;2377;51.734;8.950;2023-03-11T03:08:11;0.30;99.90
4727;DHT22;2377;51.734;8.950;2023-03-11T03:10:38;0.30;99.90
4727;DHT22;2377;51.734;8.950;2023-03-11T03:13:05;0.30;99.90
4727;DHT22;2377;51.734;8.950;2023-03-11T03:15:34;0.30;99.90
4727;DHT22;2377;51.734;8.950;2023-03-11T03:18:01;0.30;99.90
4727;DHT22;2377;51.734;8.950;2023-03-11T03:20:29;0.30;99.90
4727;DHT22;2377;51.734;8.950;2023-03-11T03:22:56;0.30;99.90
4727;DHT22;2377;51.734;8.950;2023-03-11T03:25:22;0.30;99.90
4727;DHT22;2377;51.734;8.950;2023-03-11T03:27:49;0.30;99.90
4727;DHT22;2377;51.734;8.950;2023-03-11T03:30:16;0.30;99.90
4727;DHT22;2377;51.734;8.950;2023-03-11T03:32:45;0.30;99.90
4727;DHT22;2377;51.734;8.950;2023-03-11T03:35:12;0.30;99.90
4727;DHT22;2377;51.734;8.950;2023-03-11T03:37:39;0.30;99.90
4727;DHT22;2377;51.734;8.950;2023-03-11T03:40:07;0.30;99.90
4727;DHT22;2377;51.734;8.950;2023-03-11T03:42:35;0.30;99.90
4727;DHT22;2377;51.734;8.950;2023-03-11T03:45:03;0.30;99.90
4727;DHT22;2377;51.734;8.950;2023-03-11T03:47:33;0.30;99.90
4727;DHT22;2377;51.734;8.950;2023-03-11T03:50:03;0.30;99.90
4727;DHT22;2377;51.734;8.950;2023-03-11T03:52:34;0.30;99.90
4727;DHT22;2377;51.734;8.950;2023-03-11T03:55:02;0.30;99.90
4727;DHT22;2377;51.734;8.950;2023-03-11T03:57:30;0.30;99.90
4727;DHT22;2377;51.734;8.950;2023-03-11T03:59:57;0.30;99.90
4727;DHT22;2377;51.734;8.950;2023-03-11T04:02:24;0.30;99.90
4727;DHT22;2377;51.734;8.950;2023-03-11T04:04:51;0.20;99.90
4727;DHT22;2377;51.734;8.950;2023-03-11T04:07:19;0.20;99.90
4727;DHT22;2377;51.734;8.950;2023-03-11T04:09:46;0.30;99.90
4727;DHT22;2377;51.734;8.950;2023-03-11T04:12:14;0.30;99.90
4727;DHT22;2377;51.734;8.950;2023-03-11T04:14:42;0.30;99.90
4727;DHT22;2377;51.734;8.950;2023-03-11T04:17:10;0.30;99.90
4727;DHT22;2377;51.734;8.950;2023-03-11T04:19:37;0.30;99.90
4727;DHT22;2377;51.734;8.950;2023-03-11T04:22:04;0.20;99.90
4727;DHT22;2377;51.734;8.950;2023-03-11T04:24:32;0.20;99.90
4727;DHT22;2377;51.734;8.950;2023-03-11T04:26:59;0.20;99.90
4727;DHT22;2377;51.734;8.950;2023-03-11T04:29:26;0.20;99.90
4727;DHT22;2377;51.734;8.950;2023-03-11T04:31:53;0.20;99.90
4727;DHT22;2377;51.734;8.950;2023-03-11T04:34:20;0.30;99.90
4727;DHT22;2377;51.734;8.950;2023-03-11T04:36:50;0.20;99.90
4727;DHT22;2377;51.734;8.950;2023-03-11T04:39:19;0.20;99.90
4727;DHT22;2377;51.734;8.950;2023-03-11T04:41:47;0.30;99.90
4727;DHT22;2377;51.734;8.950;2023-03-11T04:44:14;0.30;99.90
4727;DHT22;2377;51.734;8.950;2023-03-11T04:46:41;0.30;99.90
4727;DHT22;2377;51.734;8.950;2023-03-11T04:49:08;0.30;99.90
4727;DHT22;2377;51.734;8.950;2023-03-11T04:51:35;0.30;99.90
4727;DHT22;2377;51.734;8.950;2023-03-11T04:54:03;0.30;99.90
4727;DHT22;2377;51.734;8.950;2023-03-11T04:56:30;0.30;99.90
4727;DHT22;2377;51.734;8.950;2023-03-11T04:58:58;0.30;99.90
4727;DHT22;2377;51.734;8.950;2023-03-11T05:01:25;0.20;99.90
4727;DHT22;2377;51.734;8.950;2023-03-11T05:03:53;0.20;99.90
4727;DHT22;2377;51.734;8.950;2023-03-11T05:06:20;0.20;99.90
4727;DHT22;2377;51.734;8.950;2023-03-11T05:08:47;0.20;99.90
4727;DHT22;2377;51.734;8.950;2023-03-11T05:11:13;0.30;99.90
4727;DHT22;2377;51.734;8.950;2023-03-11T05:13:40;0.30;99.90
4727;DHT22;2377;51.734;8.950;2023-03-11T05:16:09;0.30;99.90
4727;DHT22;2377;51.734;8.950;2023-03-11T05:18:36;0.30;99.90
4727;DHT22;2377;51.734;8.950;2023-03-11T05:21:03;0.30;99.90
4727;DHT22;2377;51.734;8.950;2023-03-11T05:23:30;0.30;99.90
4727;DHT22;2377;51.734;8.950;2023-03-11T05:25:57;0.30;99.90
4727;DHT22;2377;51.734;8.950;2023-03-11T05:28:24;0.30;99.90
4727;DHT22;2377;51.734;8.950;2023-03-11T05:30:51;0.30;99.90
4727;DHT22;2377;51.734;8.950;2023-03-11T05:33:20;0.30;99.90
4727;DHT22;2377;51.734;8.950;2023-03-11T05:35:46;0.30;99.90
4727;DHT22;2377;51.734;8.950;2023-03-11T05:38:16;0.30;99.90
4727;DHT22;2377;51.734;8.950;2023-03-11T05:40:43;0.30;99.90
4727;DHT22;2377;51.734;8.950;2023-03-11T05:43:10;0.20;99.90
4727;DHT22;2377;51.734;8.950;2023-03-11T05:45:36;0.20;99.90
4727;DHT22;2377;51.734;8.950;2023-03-11T05:48:04;0.20;99.90
4727;DHT22;2377;51.734;8.950;2023-03-11T05:50:32;0.20;99.90
4727;DHT22;2377;51.734;8.950;2023-03-11T05:52:59;0.20;99.90
4727;DHT22;2377;51.734;8.950;2023-03-11T05:55:26;0.20;99.90
4727;DHT22;2377;51.734;8.950;2023-03-11T05:57:53;0.20;99.90
4727;DHT22;2377;51.734;8.950;2023-03-11T06:00:21;0.20;99.90
4727;DHT22;2377;51.734;8.950;2023-03-11T06:02:48;0.20;99.90
4727;DHT22;2377;51.734;8.950;2023-03-11T06:05:15;0.20;99.90
4727;DHT22;2377;51.734;8.950;2023-03-11T06:07:43;0.30;99.90
4727;DHT22;2377;51.734;8.950;2023-03-11T06:10:11;0.20;99.90
4727;DHT22;2377;51.734;8.950;2023-03-11T06:12:38;0.10;99.90
4727;DHT22;2377;51.734;8.950;2023-03-11T06:15:07;0.10;99.90
4727;DHT22;2377;51.734;8.950;2023-03-11T06:17:35;0.10;99.90
4727;DHT22;2377;51.734;8.950;2023-03-11T06:20:02;0.10;99.90
4727;DHT22;2377;51.734;8.950;2023-03-11T06:22:30;0.10;99.90
4727;DHT22;2377;51.734;8.950;2023-03-11T06:24:58;0.10;99.90
4727;DHT22;2377;51.734;8.950;2023-03-11T06:27:25;0.10;99.90
4727;DHT22;2377;51.734;8.950;2023-03-11T06:29:52;0.20;99.90
4727;DHT22;2377;51.734;8.950;2023-03-11T06:32:19;0.20;99.90
4727;DHT22;2377;51.734;8.950;2023-03-11T06:34:49;0.20;99.90
4727;DHT22;2377;51.734;8.950;2023-03-11T06:37:17;0.20;99.90
4727;DHT22;2377;51.734;8.950;2023-03-11T06:39:45;0.20;99.90
4727;DHT22;2377;51.734;8.950;2023-03-11T06:42:13;0.20;99.90
4727;DHT22;2377;51.734;8.950;2023-03-11T06:44:40;0.20;99.90
4727;DHT22;2377;51.734;8.950;2023-03-11T06:47:07;0.30;99.90
4727;DHT22;2377;51.734;8.950;2023-03-11T06:49:34;0.30;99.90
4727;DHT22;2377;51.734;8.950;2023-03-11T06:52:05;0.30;99.90
4727;DHT22;2377;51.734;8.950;2023-03-11T06:54:32;0.30;99.90
4727;DHT22;2377;51.734;8.950;2023-03-11T06:57:00;0.40;99.90
4727;DHT22;2377;51.734;8.950;2023-03-11T06:59:28;0.40;99.90
4727;DHT22;2377;51.734;8.950;2023-03-11T07:01:55;0.40;99.90
4727;DHT22;2377;51.734;8.950;2023-03-11T07:04:22;0.40;99.90
4727;DHT22;2377;51.734;8.950;2023-03-11T07:06:49;0.40;99.90
4727;DHT22;2377;51.734;8.950;2023-03-11T07:09:16;0.40;99.90
4727;DHT22;2377;51.734;8.950;2023-03-11T07:11:43;0.50;99.90
4727;DHT22;2377;51.734;8.950;2023-03-11T07:14:09;0.50;99.90
4727;DHT22;2377;51.734;8.950;2023-03-11T07:16:38;0.50;99.90
4727;DHT22;2377;51.734;8.950;2023-03-11T07:19:05;0.50;99.90
4727;DHT22;2377;51.734;8.950;2023-03-11T07:21:32;0.50;99.90
4727;DHT22;2377;51.734;8.950;2023-03-11T07:24:01;0.50;99.90
4727;DHT22;2377;51.734;8.950;2023-03-11T07:26:31;0.50;99.90
4727;DHT22;2377;51.734;8.950;2023-03-11T07:28:59;0.50;99.90
4727;DHT22;2377;51.734;8.950;2023-03-11T07:31:28;0.60;99.90
4727;DHT22;2377;51.734;8.950;2023-03-11T07:33:59;0.60;99.90
4727;DHT22;2377;51.734;8.950;2023-03-11T07:36:29;0.60;99.90
4727;DHT22;2377;51.734;8.950;2023-03-11T07:38:58;0.60;99.90
4727;DHT22;2377;51.734;8.950;2023-03-11T07:41:28;0.60;99.90
4727;DHT22;2377;51.734;8.950;2023-03-11T07:43:58;0.70;99.90
4727;DHT22;2377;51.734;8.950;2023-03-11T07:46:28;0.80;99.90
4727;DHT22;2377;51.734;8.950;2023-03-11T07:48:55;0.80;99.90
4727;DHT22;2377;51.734;8.950;2023-03-11T07:51:25;0.90;99.90
4727;DHT22;2377;51.734;8.950;2023-03-11T07:53:55;0.80;99.90
4727;DHT22;2377;51.734;8.950;2023-03-11T07:56:24;0.80;99.90
4727;DHT22;2377;51.734;8.950;2023-03-11T07:58:52;0.90;99.90
4727;DHT22;2377;51.734;8.950;2023-03-11T08:01:21;0.90;99.90
4727;DHT22;2377;51.734;8.950;2023-03-11T08:03:51;0.90;99.90
4727;DHT22;2377;51.734;8.950;2023-03-11T08:06:24;1.00;99.90
4727;DHT22;2377;51.734;8.950;2023-03-11T08:08:53;1.00;99.90
4727;DHT22;2377;51.734;8.950;2023-03-11T08:11:20;1.00;99.90
4727;DHT22;2377;51.734;8.950;2023-03-11T08:13:48;1.00;99.90
4727;DHT22;2377;51.734;8.950;2023-03-11T08:16:20;0.80;99.90
4727;DHT22;2377;51.734;8.950;2023-03-11T08:18:48;0.80;99.90
4727;DHT22;2377;51.734;8.950;2023-03-11T08:21:18;0.90;99.90
4727;DHT22;2377;51.734;8.950;2023-03-11T08:24:03;1.00;99.90
4727;DHT22;2377;51.734;8.950;2023-03-11T08:26:31;1.00;99.90
4727;DHT22;2377;51.734;8.950;2023-03-11T08:28:58;1.00;99.90
4727;DHT22;2377;51.734;8.950;2023-03-11T08:31:27;1.00;99.90
4727;DHT22;2377;51.734;8.950;2023-03-11T08:33:57;1.00;99.90
4727;DHT22;2377;51.734;8.950;2023-03-11T08:36:26;1.00;99.90
4727;DHT22;2377;51.734;8.950;2023-03-11T08:38:54;1.00;99.90
4727;DHT22;2377;51.734;8.950;2023-03-11T08:41:23;1.10;99.90
4727;DHT22;2377;51.734;8.950;2023-03-11T08:43:50;1.10;99.90
4727;DHT22;2377;51.734;8.950;2023-03-11T08:46:21;1.10;99.90
4727;DHT22;2377;51.734;8.950;2023-03-11T08:48:51;1.10;99.90
4727;DHT22;2377;51.734;8.950;2023-03-11T08:51:18;1.20;99.90
4727;DHT22;2377;51.734;8.950;2023-03-11T08:53:45;1.30;99.90
4727;DHT22;2377;51.734;8.950;2023-03-11T08:56:13;1.30;99.90
4727;DHT22;2377;51.734;8.950;2023-03-11T08:58:41;1.50;99.90
4727;DHT22;2377;51.734;8.950;2023-03-11T09:01:10;1.60;99.90
4727;DHT22;2377;51.734;8.950;2023-03-11T09:03:39;2.00;26.70
4727;DHT22;2377;51.734;8.950;2023-03-11T09:06:07;2.10;1.00
4727;DHT22;2377;51.734;8.950;2023-03-11T09:08:36;2.40;1.00
4727;DHT22;2377;51.734;8.950;2023-03-11T09:11:04;2.60;1.00
4727;DHT22;2377;51.734;8.950;2023-03-11T09:13:31;2.70;1.00
4727;DHT22;2377;51.734;8.950;2023-03-11T09:16:00;2.60;1.00
4727;DHT22;2377;51.734;8.950;2023-03-11T09:18:30;2.50;1.00
4727;DHT22;2377;51.734;8.950;2023-03-11T09:20:59;2.40;1.00
4727;DHT22;2377;51.734;8.950;2023-03-11T09:23:26;2.50;1.00
4727;DHT22;2377;51.734;8.950;2023-03-11T09:25:53;2.70;1.00
4727;DHT22;2377;51.734;8.950;2023-03-11T09:28:20;2.60;1.00
4727;DHT22;2377;51.734;8.950;2023-03-11T09:30:47;2.60;1.00
4727;DHT22;2377;51.734;8.950;2023-03-11T09:33:16;2.50;1.00
4727;DHT22;2377;51.734;8.950;2023-03-11T09:35:43;2.60;1.00
4727;DHT22;2377;51.734;8.950;2023-03-11T09:38:10;2.70;1.00
4727;DHT22;2377;51.734;8.950;2023-03-11T09:40:47;2.80;1.00
4727;DHT22;2377;51.734;8.950;2023-03-11T09:43:28;2.80;1.00
4727;DHT22;2377;51.734;8.950;2023-03-11T09:46:16;2.80;1.00
4727;DHT22;2377;51.734;8.950;2023-03-11T09:49:07;2.90;1.00
4727;DHT22;2377;51.734;8.950;2023-03-11T09:51:44;3.00;1.00
4727;DHT22;2377;51.734;8.950;2023-03-11T09:54:16;3.70;1.00
4727;DHT22;2377;51.734;8.950;2023-03-11T09:56:44;4.10;1.00
4727;DHT22;2377;51.734;8.950;2023-03-11T09:59:15;4.20;1.00
4727;DHT22;2377;51.734;8.950;2023-03-11T10:01:49;4.30;1.00
4727;DHT22;2377;51.734;8.950;2023-03-11T10:04:22;4.50;1.00
4727;DHT22;2377;51.734;8.950;2023-03-11T10:06:53;4.70;1.00
4727;DHT22;2377;51.734;8.950;2023-03-11T10:09:30;4.80;1.00
4727;DHT22;2377;51.734;8.950;2023-03-11T10:12:18;5.00;1.00
4727;DHT22;2377;51.734;8.950;2023-03-11T10:15:06;5.10;1.00
4727;DHT22;2377;51.734;8.950;2023-03-11T10:18:09;5.00;1.00
4727;DHT22;2377;51.734;8.950;2023-03-11T10:20:56;5.00;1.00
4727;DHT22;2377;51.734;8.950;2023-03-11T10:23:33;5.00;1.00
4727;DHT22;2377;51.734;8.950;2023-03-11T10:26:22;5.00;1.00
4727;DHT22;2377;51.734;8.950;2023-03-11T10:29:00;5.00;1.00
4727;DHT22;2377;51.734;8.950;2023-03-11T10:31:37;4.80;1.00
4727;DHT22;2377;51.734;8.950;2023-03-11T10:34:13;4.80;1.00
4727;DHT22;2377;51.734;8.950;2023-03-11T10:36:55;4.60;1.00
4727;DHT22;2377;51.734;8.950;2023-03-11T10:39:29;4.60;1.00
4727;DHT22;2377;51.734;8.950;2023-03-11T10:42:00;4.60;1.00
4727;DHT22;2377;51.734;8.950;2023-03-11T10:44:33;4.50;1.00
4727;DHT22;2377;51.734;8.950;2023-03-11T10:47:01;4.50;1.00
4727;DHT22;2377;51.734;8.950;2023-03-11T10:49:29;4.30;1.00
4727;DHT22;2377;51.734;8.950;2023-03-11T10:51:57;4.20;1.00
4727;DHT22;2377;51.734;8.950;2023-03-11T10:54:27;4.10;1.00
4727;DHT22;2377;51.734;8.950;2023-03-11T10:56:58;4.10;1.00
4727;DHT22;2377;51.734;8.950;2023-03-11T10:59:29;4.10;1.00
4727;DHT22;2377;51.734;8.950;2023-03-11T11:01:59;4.30;1.00
4727;DHT22;2377;51.734;8.950;2023-03-11T11:04:32;4.40;1.00
4727;DHT22;2377;51.734;8.950;2023-03-11T11:07:25;4.60;1.00
4727;DHT22;2377;51.734;8.950;2023-03-11T11:10:14;4.60;1.00
4727;DHT22;2377;51.734;8.950;2023-03-11T11:12:56;4.70;1.00
4727;DHT22;2377;51.734;8.950;2023-03-11T11:15:28;4.60;1.00
4727;DHT22;2377;51.734;8.950;2023-03-11T11:17:59;4.50;1.00
4727;DHT22;2377;51.734;8.950;2023-03-11T11:20:29;4.50;1.00
4727;DHT22;2377;51.734;8.950;2023-03-11T11:23:00;4.50;1.00
4727;DHT22;2377;51.734;8.950;2023-03-11T11:25:31;4.50;1.00
4727;DHT22;2377;51.734;8.950;2023-03-11T11:28:02;4.40;1.00
4727;DHT22;2377;51.734;8.950;2023-03-11T11:30:30;4.30;1.00
4727;DHT22;2377;51.734;8.950;2023-03-11T11:33:20;4.30;1.00
4727;DHT22;2377;51.734;8.950;2023-03-11T11:35:52;4.20;1.00
4727;DHT22;2377;51.734;8.950;2023-03-11T11:38:25;4.10;1.00
4727;DHT22;2377;51.734;8.950;2023-03-11T11:40:55;4.10;1.00
4727;DHT22;2377;51.734;8.950;2023-03-11T11:43:35;4.20;1.00
4727;DHT22;2377;51.734;8.950;2023-03-11T11:46:18;4.20;1.00
4727;DHT22;2377;51.734;8.950;2023-03-11T11:48:56;4.30;1.00
4727;DHT22;2377;51.734;8.950;2023-03-11T11:51:30;4.20;1.00
4727;DHT22;2377;51.734;8.950;2023-03-11T11:54:06;4.20;1.00
4727;DHT22;2377;51.734;8.950;2023-03-11T11:56:42;4.10;1.00
4727;DHT22;2377;51.734;8.950;2023-03-11T11:59:15;4.10;1.00
4727;DHT22;2377;51.734;8.950;2023-03-11T12:01:52;4.10;1.00
4727;DHT22;2377;51.734;8.950;2023-03-11T12:04:47;4.20;1.00
4727;DHT22;2377;51.734;8.950;2023-03-11T12:10:33;4.20;1.00
4727;DHT22;2377;51.734;8.950;2023-03-11T12:13:33;4.00;1.00
4727;DHT22;2377;51.734;8.950;2023-03-11T12:16:19;3.70;1.00
4727;DHT22;2377;51.734;8.950;2023-03-11T12:18:55;3.80;1.00
4727;DHT22;2377;51.734;8.950;2023-03-11T12:21:43;3.80;1.00
4727;DHT22;2377;51.734;8.950;2023-03-11T12:24:40;3.80;1.00
4727;DHT22;2377;51.734;8.950;2023-03-11T12:27:24;3.90;1.00
4727;DHT22;2377;51.734;8.950;2023-03-11T12:29:57;3.80;1.00
4727;DHT22;2377;51.734;8.950;2023-03-11T12:32:30;3.80;1.00
4727;DHT22;2377;51.734;8.950;2023-03-11T12:35:02;3.90;1.00
4727;DHT22;2377;51.734;8.950;2023-03-11T12:37:35;4.00;1.00
4727;DHT22;2377;51.734;8.950;2023-03-11T12:43:57;4.30;1.00
4727;DHT22;2377;51.734;8.950;2023-03-11T12:47:00;4.30;1.00
4727;DHT22;2377;51.734;8.950;2023-03-11T12:49:31;4.30;1.00
4727;DHT22;2377;51.734;8.950;2023-03-11T12:52:01;4.40;1.00
4727;DHT22;2377;51.734;8.950;2023-03-11T12:54:32;4.40;1.00
4727;DHT22;2377;51.734;8.950;2023-03-11T12:57:02;4.50;1.00
4727;DHT22;2377;51.734;8.950;2023-03-11T13:03:11;4.60;1.00
4727;DHT22;2377;51.734;8.950;2023-03-11T13:05:57;4.60;1.00
4727;DHT22;2377;51.734;8.950;2023-03-11T13:08:34;4.50;1.00
4727;DHT22;2377;51.734;8.950;2023-03-11T13:11:25;4.50;1.00
4727;DHT22;2377;51.734;8.950;2023-03-11T13:14:08;4.50;1.00
4727;DHT22;2377;51.734;8.950;2023-03-11T13:16:46;4.50;1.00
4727;DHT22;2377;51.734;8.950;2023-03-11T13:19:36;4.60;1.00
4727;DHT22;2377;51.734;8.950;2023-03-11T13:29:26;4.50;1.00
4727;DHT22;2377;51.734;8.950;2023-03-11T13:32:34;4.30;1.00
4727;DHT22;2377;51.734;8.950;2023-03-11T13:35:38;4.30;1.00
4727;DHT22;2377;51.734;8.950;2023-03-11T13:38:36;4.20;1.00
4727;DHT22;2377;51.734;8.950;2023-03-11T13:41:14;4.20;1.00
4727;DHT22;2377;51.734;8.950;2023-03-11T13:43:48;4.30;1.00
4727;DHT22;2377;51.734;8.950;2023-03-11T13:46:25;4.40;1.00
4727;DHT22;2377;51.734;8.950;2023-03-11T13:49:02;4.50;1.00
4727;DHT22;2377;51.734;8.950;2023-03-11T13:51:36;4.50;1.00
4727;DHT22;2377;51.734;8.950;2023-03-11T13:54:25;4.50;1.00
4727;DHT22;2377;51.734;8.950;2023-03-11T13:57:01;4.50;1.00
4727;DHT22;2377;51.734;8.950;2023-03-11T13:59:30;4.60;1.00
4727;DHT22;2377;51.734;8.950;2023-03-11T14:02:02;4.60;1.00
4727;DHT22;2377;51.734;8.950;2023-03-11T14:04:41;4.60;1.00
4727;DHT22;2377;51.734;8.950;2023-03-11T14:07:21;4.50;1.00
4727;DHT22;2377;51.734;8.950;2023-03-11T14:09:51;4.50;1.00
4727;DHT22;2377;51.734;8.950;2023-03-11T14:12:46;4.50;1.00
4727;DHT22;2377;51.734;8.950;2023-03-11T14:15:17;4.50;1.00
4727;DHT22;2377;51.734;8.950;2023-03-11T14:17:50;4.50;1.00
4727;DHT22;2377;51.734;8.950;2023-03-11T14:20:19;4.30;1.00
4727;DHT22;2377;51.734;8.950;2023-03-11T14:22:52;4.30;1.00
4727;DHT22;2377;51.734;8.950;2023-03-11T14:25:23;4.20;1.00
4727;DHT22;2377;51.734;8.950;2023-03-11T14:27:54;4.20;1.00
4727;DHT22;2377;51.734;8.950;2023-03-11T14:30:25;4.30;1.00
4727;DHT22;2377;51.734;8.950;2023-03-11T14:32:59;4.30;1.00
4727;DHT22;2377;51.734;8.950;2023-03-11T14:35:28;4.30;1.00
4727;DHT22;2377;51.734;8.950;2023-03-11T14:37:59;4.40;1.00
4727;DHT22;2377;51.734;8.950;2023-03-11T14:40:29;4.40;1.00
4727;DHT22;2377;51.734;8.950;2023-03-11T14:43:00;4.50;1.00
4727;DHT22;2377;51.734;8.950;2023-03-11T14:45:31;4.50;1.00
4727;DHT22;2377;51.734;8.950;2023-03-11T14:48:04;4.50;1.00
4727;DHT22;2377;51.734;8.950;2023-03-11T14:50:36;4.60;1.00
4727;DHT22;2377;51.734;8.950;2023-03-11T14:53:07;4.60;1.00
4727;DHT22;2377;51.734;8.950;2023-03-11T14:55:41;4.60;1.00
4727;DHT22;2377;51.734;8.950;2023-03-11T14:58:21;4.70;1.00
4727;DHT22;2377;51.734;8.950;2023-03-11T15:00:57;4.70;1.00
4727;DHT22;2377;51.734;8.950;2023-03-11T15:03:31;4.70;1.00
4727;DHT22;2377;51.734;8.950;2023-03-11T15:06:03;4.80;1.00
4727;DHT22;2377;51.734;8.950;2023-03-11T15:08:41;4.70;1.00
4727;DHT22;2377;51.734;8.950;2023-03-11T15:11:22;4.80;1.00
4727;DHT22;2377;51.734;8.950;2023-03-11T15:13:51;4.80;1.00
4727;DHT22;2377;51.734;8.950;2023-03-11T15:16:25;4.70;1.00
4727;DHT22;2377;51.734;8.950;2023-03-11T15:18:58;4.60;1.00
4727;DHT22;2377;51.734;8.950;2023-03-11T15:21:27;4.60;1.00
4727;DHT22;2377;51.734;8.950;2023-03-11T15:24:00;4.60;1.00
4727;DHT22;2377;51.734;8.950;2023-03-11T15:26:31;4.60;1.00
4727;DHT22;2377;51.734;8.950;2023-03-11T15:29:01;4.60;1.00
4727;DHT22;2377;51.734;8.950;2023-03-11T15:31:35;4.60;1.00
4727;DHT22;2377;51.734;8.950;2023-03-11T15:34:25;4.50;1.00
4727;DHT22;2377;51.734;8.950;2023-03-11T15:36:56;4.50;1.00
4727;DHT22;2377;51.734;8.950;2023-03-11T15:39:48;4.50;1.00
4727;DHT22;2377;51.734;8.950;2023-03-11T15:42:21;4.60;1.00
4727;DHT22;2377;51.734;8.950;2023-03-11T15:45:12;4.50;1.00
4727;DHT22;2377;51.734;8.950;2023-03-11T15:47:41;4.50;1.00
4727;DHT22;2377;51.734;8.950;2023-03-11T15:50:20;4.50;1.00
4727;DHT22;2377;51.734;8.950;2023-03-11T15:52:50;4.50;1.00
4727;DHT22;2377;51.734;8.950;2023-03-11T15:55:19;4.50;1.00
4727;DHT22;2377;51.734;8.950;2023-03-11T15:57:47;4.50;1.00
4727;DHT22;2377;51.734;8.950;2023-03-11T16:00:19;4.50;1.00
4727;DHT22;2377;51.734;8.950;2023-03-11T16:02:48;4.40;1.00
4727;DHT22;2377;51.734;8.950;2023-03-11T16:05:18;4.30;1.00
4727;DHT22;2377;51.734;8.950;2023-03-11T16:07:46;4.30;1.00
4727;DHT22;2377;51.734;8.950;2023-03-11T16:10:15;4.40;1.00
4727;DHT22;2377;51.734;8.950;2023-03-11T16:12:45;4.30;1.00
4727;DHT22;2377;51.734;8.950;2023-03-11T16:15:19;4.30;1.00
4727;DHT22;2377;51.734;8.950;2023-03-11T16:17:50;4.30;1.00
4727;DHT22;2377;51.734;8.950;2023-03-11T16:20:18;4.20;1.00
4727;DHT22;2377;51.734;8.950;2023-03-11T16:22:47;4.20;1.00
4727;DHT22;2377;51.734;8.950;2023-03-11T16:25:20;4.10;1.00
4727;DHT22;2377;51.734;8.950;2023-03-11T16:27:54;4.10;1.00
4727;DHT22;2377;51.734;8.950;2023-03-11T16:30:23;4.10;1.00
4727;DHT22;2377;51.734;8.950;2023-03-11T16:32:55;4.00;1.00
4727;DHT22;2377;51.734;8.950;2023-03-11T16:35:22;4.00;1.00
4727;DHT22;2377;51.734;8.950;2023-03-11T16:37:50;4.00;1.00
4727;DHT22;2377;51.734;8.950;2023-03-11T16:40:20;3.80;1.00
4727;DHT22;2377;51.734;8.950;2023-03-11T16:42:49;3.80;1.00
4727;DHT22;2377;51.734;8.950;2023-03-11T16:45:20;3.80;1.00
4727;DHT22;2377;51.734;8.950;2023-03-11T16:47:47;3.70;1.00
4727;DHT22;2377;51.734;8.950;2023-03-11T16:50:15;3.70;1.00
4727;DHT22;2377;51.734;8.950;2023-03-11T16:52:42;3.80;1.00
4727;DHT22;2377;51.734;8.950;2023-03-11T16:55:09;3.60;1.00
4727;DHT22;2377;51.734;8.950;2023-03-11T16:57:36;3.60;1.00
4727;DHT22;2377;51.734;8.950;2023-03-11T17:00:07;3.60;1.00
4727;DHT22;2377;51.734;8.950;2023-03-11T17:02:36;3.50;1.00
4727;DHT22;2377;51.734;8.950;2023-03-11T17:05:04;3.50;1.00
4727;DHT22;2377;51.734;8.950;2023-03-11T17:07:32;3.40;1.00
4727;DHT22;2377;51.734;8.950;2023-03-11T17:10:01;3.30;1.00